sensor_id;sensor_type;location;lat;lon;timestamp;P1;durP1;ratioP1;P2;durP2;ratioP2
16199;SDS011;8207;52.494;4.654;2023-03-03T00:00:07;10.77;;;6.90;;
16199;SDS011;8207;52.494;4.654;2023-03-03T00:02:35;11.27;;;7.50;;
16199;SDS011;8207;52.494;4.654;2023-03-03T00:05:02;14.93;;;7.20;;
16199;SDS011;8207;52.494;4.654;2023-03-03T00:07:29;15.50;;;7.67;;
16199;SDS011;8207;52.494;4.654;2023-03-03T00:09:57;13.80;;;8.50;;
16199;SDS011;8207;52.494;4.654;2023-03-03T00:12:25;13.03;;;8.33;;
16199;SDS011;8207;52.494;4.654;2023-03-03T00:14:53;12.70;;;7.97;;
16199;SDS011;8207;52.494;4.654;2023-03-03T00:17:21;12.97;;;6.87;;
16199;SDS011;8207;52.494;4.654;2023-03-03T00:19:49;12.13;;;7.17;;
16199;SDS011;8207;52.494;4.654;2023-03-03T00:22:21;9.73;;;6.27;;
16199;SDS011;8207;52.494;4.654;2023-03-03T00:24:53;12.77;;;7.00;;
16199;SDS011;8207;52.494;4.654;2023-03-03T00:27:25;9.10;;;6.10;;
16199;SDS011;8207;52.494;4.654;2023-03-03T00:29:55;12.13;;;6.47;;
16199;SDS011;8207;52.494;4.654;2023-03-03T00:32:24;8.90;;;6.67;;
16199;SDS011;8207;52.494;4.654;2023-03-03T00:34:52;11.40;;;7.37;;
16199;SDS011;8207;52.494;4.654;2023-03-03T00:37:30;8.80;;;5.80;;
16199;SDS011;8207;52.494;4.654;2023-03-03T00:40:00;13.63;;;6.50;;
16199;SDS011;8207;52.494;4.654;2023-03-03T00:42:40;10.60;;;5.47;;
16199;SDS011;8207;52.494;4.654;2023-03-03T00:45:16;9.70;;;5.90;;
16199;SDS011;8207;52.494;4.654;2023-03-03T00:47:56;9.57;;;5.97;;
16199;SDS011;8207;52.494;4.654;2023-03-03T00:50:27;8.90;;;5.83;;
16199;SDS011;8207;52.494;4.654;2023-03-03T00:53:00;10.33;;;5.50;;
16199;SDS011;8207;52.494;4.654;2023-03-03T00:55:32;8.30;;;5.37;;
16199;SDS011;8207;52.494;4.654;2023-03-03T00:58:02;8.33;;;5.67;;
16199;SDS011;8207;52.494;4.654;2023-03-03T01:00:29;10.43;;;5.33;;
16199;SDS011;8207;52.494;4.654;2023-03-03T01:02:56;7.37;;;4.73;;
16199;SDS011;8207;52.494;4.654;2023-03-03T01:05:27;9.10;;;4.80;;
16199;SDS011;8207;52.494;4.654;2023-03-03T01:07:53;6.43;;;5.17;;
16199;SDS011;8207;52.494;4.654;2023-03-03T01:10:20;7.63;;;4.47;;
16199;SDS011;8207;52.494;4.654;2023-03-03T01:12:47;9.97;;;4.77;;
16199;SDS011;8207;52.494;4.654;2023-03-03T01:15:16;5.97;;;4.63;;
16199;SDS011;8207;52.494;4.654;2023-03-03T01:17:43;6.03;;;3.77;;
16199;SDS011;8207;52.494;4.654;2023-03-03T01:20:11;9.13;;;4.60;;
16199;SDS011;8207;52.494;4.654;2023-03-03T01:22:39;4.93;;;3.67;;
16199;SDS011;8207;52.494;4.654;2023-03-03T01:25:07;7.20;;;4.40;;
16199;SDS011;8207;52.494;4.654;2023-03-03T01:27:35;5.63;;;3.93;;
16199;SDS011;8207;52.494;4.654;2023-03-03T01:30:02;6.23;;;3.37;;
16199;SDS011;8207;52.494;4.654;2023-03-03T01:32:30;5.07;;;3.37;;
16199;SDS011;8207;52.494;4.654;2023-03-03T01:34:57;8.63;;;3.73;;
16199;SDS011;8207;52.494;4.654;2023-03-03T01:37:24;5.47;;;3.37;;
16199;SDS011;8207;52.494;4.654;2023-03-03T01:39:51;6.10;;;3.00;;
16199;SDS011;8207;52.494;4.654;2023-03-03T01:42:19;7.27;;;3.37;;
16199;SDS011;8207;52.494;4.654;2023-03-03T01:44:46;7.07;;;3.03;;
16199;SDS011;8207;52.494;4.654;2023-03-03T01:47:14;5.67;;;2.77;;
16199;SDS011;8207;52.494;4.654;2023-03-03T01:49:47;9.73;;;3.00;;
16199;SDS011;8207;52.494;4.654;2023-03-03T01:52:18;5.07;;;3.03;;
16199;SDS011;8207;52.494;4.654;2023-03-03T01:54:52;4.93;;;2.70;;
16199;SDS011;8207;52.494;4.654;2023-03-03T01:57:24;6.20;;;2.90;;
16199;SDS011;8207;52.494;4.654;2023-03-03T01:59:54;6.93;;;2.80;;
16199;SDS011;8207;52.494;4.654;2023-03-03T02:02:24;4.83;;;2.90;;
16199;SDS011;8207;52.494;4.654;2023-03-03T02:04:54;6.30;;;2.87;;
16199;SDS011;8207;52.494;4.654;2023-03-03T02:07:21;4.37;;;2.00;;
16199;SDS011;8207;52.494;4.654;2023-03-03T02:09:52;4.60;;;2.30;;
16199;SDS011;8207;52.494;4.654;2023-03-03T02:12:25;6.50;;;2.10;;
16199;SDS011;8207;52.494;4.654;2023-03-03T02:14:57;4.27;;;2.83;;
16199;SDS011;8207;52.494;4.654;2023-03-03T02:17:24;4.30;;;2.33;;
16199;SDS011;8207;52.494;4.654;2023-03-03T02:19:52;3.90;;;2.00;;
16199;SDS011;8207;52.494;4.654;2023-03-03T02:22:29;16.57;;;4.20;;
16199;SDS011;8207;52.494;4.654;2023-03-03T02:25:01;6.77;;;2.83;;
16199;SDS011;8207;52.494;4.654;2023-03-03T02:27:32;3.53;;;1.90;;
16199;SDS011;8207;52.494;4.654;2023-03-03T02:30:07;3.07;;;1.67;;
16199;SDS011;8207;52.494;4.654;2023-03-03T02:32:38;3.10;;;2.13;;
16199;SDS011;8207;52.494;4.654;2023-03-03T02:35:19;2.90;;;1.80;;
16199;SDS011;8207;52.494;4.654;2023-03-03T02:37:53;5.43;;;1.77;;
16199;SDS011;8207;52.494;4.654;2023-03-03T02:40:23;4.83;;;1.90;;
16199;SDS011;8207;52.494;4.654;2023-03-03T02:42:56;4.60;;;1.70;;
16199;SDS011;8207;52.494;4.654;2023-03-03T02:45:26;7.83;;;1.93;;
16199;SDS011;8207;52.494;4.654;2023-03-03T02:47:53;3.17;;;1.67;;
16199;SDS011;8207;52.494;4.654;2023-03-03T02:50:20;5.60;;;2.47;;
16199;SDS011;8207;52.494;4.654;2023-03-03T02:52:47;3.63;;;1.60;;
16199;SDS011;8207;52.494;4.654;2023-03-03T02:55:14;4.93;;;1.80;;
16199;SDS011;8207;52.494;4.654;2023-03-03T02:57:40;2.53;;;1.53;;
16199;SDS011;8207;52.494;4.654;2023-03-03T03:00:10;2.80;;;1.60;;
16199;SDS011;8207;52.494;4.654;2023-03-03T03:02:37;4.33;;;1.67;;
16199;SDS011;8207;52.494;4.654;2023-03-03T03:05:04;3.40;;;2.00;;
16199;SDS011;8207;52.494;4.654;2023-03-03T03:07:33;2.40;;;1.87;;
16199;SDS011;8207;52.494;4.654;2023-03-03T03:09:59;3.00;;;1.60;;
16199;SDS011;8207;52.494;4.654;2023-03-03T03:12:26;3.20;;;1.60;;
16199;SDS011;8207;52.494;4.654;2023-03-03T03:14:53;2.00;;;1.40;;
16199;SDS011;8207;52.494;4.654;2023-03-03T03:17:21;4.23;;;1.80;;
16199;SDS011;8207;52.494;4.654;2023-03-03T03:19:48;2.63;;;1.40;;
16199;SDS011;8207;52.494;4.654;2023-03-03T03:22:15;4.30;;;1.57;;
16199;SDS011;8207;52.494;4.654;2023-03-03T03:24:43;5.57;;;1.53;;
16199;SDS011;8207;52.494;4.654;2023-03-03T03:27:10;2.93;;;1.30;;
16199;SDS011;8207;52.494;4.654;2023-03-03T03:29:37;6.27;;;1.70;;
16199;SDS011;8207;52.494;4.654;2023-03-03T03:32:04;4.30;;;1.50;;
16199;SDS011;8207;52.494;4.654;2023-03-03T03:34:32;3.03;;;1.50;;
16199;SDS011;8207;52.494;4.654;2023-03-03T03:36:59;3.57;;;1.47;;
16199;SDS011;8207;52.494;4.654;2023-03-03T03:39:26;1.93;;;1.27;;
16199;SDS011;8207;52.494;4.654;2023-03-03T03:41:53;5.73;;;1.60;;
16199;SDS011;8207;52.494;4.654;2023-03-03T03:44:20;3.40;;;1.33;;
16199;SDS011;8207;52.494;4.654;2023-03-03T03:46:49;3.87;;;1.70;;
16199;SDS011;8207;52.494;4.654;2023-03-03T03:49:16;6.80;;;1.50;;
16199;SDS011;8207;52.494;4.654;2023-03-03T03:51:44;2.50;;;1.50;;
16199;SDS011;8207;52.494;4.654;2023-03-03T03:54:11;1.57;;;1.17;;
16199;SDS011;8207;52.494;4.654;2023-03-03T03:56:38;4.10;;;1.60;;
16199;SDS011;8207;52.494;4.654;2023-03-03T03:59:05;4.53;;;1.50;;
16199;SDS011;8207;52.494;4.654;2023-03-03T04:01:33;7.13;;;1.53;;
16199;SDS011;8207;52.494;4.654;2023-03-03T04:04:00;2.97;;;1.53;;
16199;SDS011;8207;52.494;4.654;2023-03-03T04:06:27;3.73;;;1.40;;
16199;SDS011;8207;52.494;4.654;2023-03-03T04:08:56;2.60;;;1.20;;
16199;SDS011;8207;52.494;4.654;2023-03-03T04:11:23;4.97;;;1.57;;
16199;SDS011;8207;52.494;4.654;2023-03-03T04:13:49;2.90;;;1.47;;
16199;SDS011;8207;52.494;4.654;2023-03-03T04:16:16;4.40;;;1.77;;
16199;SDS011;8207;52.494;4.654;2023-03-03T04:18:43;3.17;;;1.90;;
16199;SDS011;8207;52.494;4.654;2023-03-03T04:21:11;3.23;;;1.80;;
16199;SDS011;8207;52.494;4.654;2023-03-03T04:23:38;2.47;;;1.57;;
16199;SDS011;8207;52.494;4.654;2023-03-03T04:26:07;3.43;;;1.87;;
16199;SDS011;8207;52.494;4.654;2023-03-03T04:28:34;2.30;;;1.47;;
16199;SDS011;8207;52.494;4.654;2023-03-03T04:31:01;3.83;;;1.40;;
16199;SDS011;8207;52.494;4.654;2023-03-03T04:33:28;4.30;;;1.40;;
16199;SDS011;8207;52.494;4.654;2023-03-03T04:35:55;3.63;;;1.43;;
16199;SDS011;8207;52.494;4.654;2023-03-03T04:38:22;3.50;;;1.60;;
16199;SDS011;8207;52.494;4.654;2023-03-03T04:40:49;3.47;;;1.83;;
16199;SDS011;8207;52.494;4.654;2023-03-03T04:43:17;1.87;;;1.30;;
16199;SDS011;8207;52.494;4.654;2023-03-03T04:45:44;4.37;;;1.30;;
16199;SDS011;8207;52.494;4.654;2023-03-03T04:48:11;3.00;;;1.60;;
16199;SDS011;8207;52.494;4.654;2023-03-03T04:50:38;4.13;;;1.50;;
16199;SDS011;8207;52.494;4.654;2023-03-03T04:53:04;5.97;;;1.70;;
16199;SDS011;8207;52.494;4.654;2023-03-03T04:55:31;3.60;;;1.73;;
16199;SDS011;8207;52.494;4.654;2023-03-03T04:58:00;1.60;;;1.17;;
16199;SDS011;8207;52.494;4.654;2023-03-03T05:00:29;2.40;;;1.57;;
16199;SDS011;8207;52.494;4.654;2023-03-03T05:02:56;3.53;;;1.53;;
16199;SDS011;8207;52.494;4.654;2023-03-03T05:05:24;5.90;;;2.00;;
16199;SDS011;8207;52.494;4.654;2023-03-03T05:07:50;3.47;;;1.90;;
16199;SDS011;8207;52.494;4.654;2023-03-03T05:10:17;1.40;;;1.30;;
16199;SDS011;8207;52.494;4.654;2023-03-03T05:12:44;2.20;;;1.57;;
16199;SDS011;8207;52.494;4.654;2023-03-03T05:15:11;2.47;;;1.50;;
16199;SDS011;8207;52.494;4.654;2023-03-03T05:17:40;3.80;;;1.57;;
16199;SDS011;8207;52.494;4.654;2023-03-03T05:20:07;3.17;;;1.30;;
16199;SDS011;8207;52.494;4.654;2023-03-03T05:22:35;4.63;;;2.17;;
16199;SDS011;8207;52.494;4.654;2023-03-03T05:25:02;2.43;;;1.83;;
16199;SDS011;8207;52.494;4.654;2023-03-03T05:27:30;3.57;;;1.50;;
16199;SDS011;8207;52.494;4.654;2023-03-03T05:29:57;2.73;;;1.80;;
16199;SDS011;8207;52.494;4.654;2023-03-03T05:32:24;2.37;;;1.63;;
16199;SDS011;8207;52.494;4.654;2023-03-03T05:34:53;4.67;;;1.50;;
16199;SDS011;8207;52.494;4.654;2023-03-03T05:37:19;1.90;;;1.70;;
16199;SDS011;8207;52.494;4.654;2023-03-03T05:39:48;3.63;;;1.60;;
16199;SDS011;8207;52.494;4.654;2023-03-03T05:42:15;2.10;;;1.37;;
16199;SDS011;8207;52.494;4.654;2023-03-03T05:44:42;1.90;;;1.50;;
16199;SDS011;8207;52.494;4.654;2023-03-03T05:47:09;3.43;;;1.77;;
16199;SDS011;8207;52.494;4.654;2023-03-03T05:49:36;1.70;;;1.60;;
16199;SDS011;8207;52.494;4.654;2023-03-03T05:52:05;2.77;;;1.90;;
16199;SDS011;8207;52.494;4.654;2023-03-03T05:54:33;1.83;;;1.60;;
16199;SDS011;8207;52.494;4.654;2023-03-03T05:57:00;3.20;;;1.43;;
16199;SDS011;8207;52.494;4.654;2023-03-03T05:59:27;1.80;;;1.70;;
16199;SDS011;8207;52.494;4.654;2023-03-03T06:01:54;2.30;;;1.73;;
16199;SDS011;8207;52.494;4.654;2023-03-03T06:04:21;5.07;;;2.20;;
16199;SDS011;8207;52.494;4.654;2023-03-03T06:06:47;1.90;;;1.70;;
16199;SDS011;8207;52.494;4.654;2023-03-03T06:09:16;2.03;;;1.70;;
16199;SDS011;8207;52.494;4.654;2023-03-03T06:11:44;3.43;;;1.60;;
16199;SDS011;8207;52.494;4.654;2023-03-03T06:14:11;2.27;;;1.70;;
16199;SDS011;8207;52.494;4.654;2023-03-03T06:16:38;2.17;;;1.93;;
16199;SDS011;8207;52.494;4.654;2023-03-03T06:19:05;2.63;;;1.77;;
16199;SDS011;8207;52.494;4.654;2023-03-03T06:21:32;2.33;;;2.07;;
16199;SDS011;8207;52.494;4.654;2023-03-03T06:23:58;2.93;;;1.97;;
16199;SDS011;8207;52.494;4.654;2023-03-03T06:26:27;3.87;;;2.10;;
16199;SDS011;8207;52.494;4.654;2023-03-03T06:28:54;3.47;;;2.20;;
16199;SDS011;8207;52.494;4.654;2023-03-03T06:31:20;6.20;;;2.07;;
16199;SDS011;8207;52.494;4.654;2023-03-03T06:33:47;2.60;;;2.00;;
16199;SDS011;8207;52.494;4.654;2023-03-03T06:36:15;2.20;;;2.00;;
16199;SDS011;8207;52.494;4.654;2023-03-03T06:38:42;6.17;;;2.10;;
16199;SDS011;8207;52.494;4.654;2023-03-03T06:41:09;1.70;;;1.60;;
16199;SDS011;8207;52.494;4.654;2023-03-03T06:43:38;1.70;;;1.60;;
16199;SDS011;8207;52.494;4.654;2023-03-03T06:46:05;2.93;;;2.03;;
16199;SDS011;8207;52.494;4.654;2023-03-03T06:48:32;4.37;;;2.37;;
16199;SDS011;8207;52.494;4.654;2023-03-03T06:50:59;7.37;;;2.27;;
16199;SDS011;8207;52.494;4.654;2023-03-03T06:53:29;2.77;;;2.17;;
16199;SDS011;8207;52.494;4.654;2023-03-03T06:55:58;3.83;;;2.00;;
16199;SDS011;8207;52.494;4.654;2023-03-03T06:58:27;3.17;;;2.20;;
16199;SDS011;8207;52.494;4.654;2023-03-03T07:00:57;2.70;;;1.90;;
16199;SDS011;8207;52.494;4.654;2023-03-03T07:03:25;3.87;;;1.90;;
16199;SDS011;8207;52.494;4.654;2023-03-03T07:05:54;4.50;;;2.07;;
16199;SDS011;8207;52.494;4.654;2023-03-03T07:08:21;3.30;;;2.33;;
16199;SDS011;8207;52.494;4.654;2023-03-03T07:10:50;4.63;;;3.03;;
16199;SDS011;8207;52.494;4.654;2023-03-03T07:13:19;6.30;;;3.40;;
16199;SDS011;8207;52.494;4.654;2023-03-03T07:15:48;5.97;;;3.37;;
16199;SDS011;8207;52.494;4.654;2023-03-03T07:18:35;5.90;;;3.70;;
16199;SDS011;8207;52.494;4.654;2023-03-03T07:21:07;9.40;;;5.60;;
16199;SDS011;8207;52.494;4.654;2023-03-03T07:23:41;9.70;;;5.87;;
16199;SDS011;8207;52.494;4.654;2023-03-03T07:26:10;11.47;;;5.90;;
16199;SDS011;8207;52.494;4.654;2023-03-03T07:28:39;14.00;;;7.33;;
16199;SDS011;8207;52.494;4.654;2023-03-03T07:31:16;11.17;;;6.70;;
16199;SDS011;8207;52.494;4.654;2023-03-03T07:33:58;13.70;;;6.13;;
16199;SDS011;8207;52.494;4.654;2023-03-03T07:36:27;12.37;;;5.77;;
16199;SDS011;8207;52.494;4.654;2023-03-03T07:38:56;10.30;;;5.03;;
16199;SDS011;8207;52.494;4.654;2023-03-03T07:41:26;8.87;;;4.77;;
16199;SDS011;8207;52.494;4.654;2023-03-03T07:43:54;7.67;;;4.77;;
16199;SDS011;8207;52.494;4.654;2023-03-03T07:46:25;5.00;;;3.93;;
16199;SDS011;8207;52.494;4.654;2023-03-03T07:48:55;8.40;;;5.33;;
16199;SDS011;8207;52.494;4.654;2023-03-03T07:51:26;11.23;;;5.00;;
16199;SDS011;8207;52.494;4.654;2023-03-03T07:53:54;8.23;;;4.73;;
16199;SDS011;8207;52.494;4.654;2023-03-03T07:56:38;9.53;;;4.27;;
16199;SDS011;8207;52.494;4.654;2023-03-03T07:59:08;18.07;;;6.63;;
16199;SDS011;8207;52.494;4.654;2023-03-03T08:01:46;11.37;;;3.70;;
16199;SDS011;8207;52.494;4.654;2023-03-03T08:04:20;6.47;;;3.63;;
16199;SDS011;8207;52.494;4.654;2023-03-03T08:06:52;6.20;;;3.53;;
16199;SDS011;8207;52.494;4.654;2023-03-03T08:09:24;3.93;;;3.30;;
16199;SDS011;8207;52.494;4.654;2023-03-03T08:11:56;5.57;;;3.70;;
16199;SDS011;8207;52.494;4.654;2023-03-03T08:14:28;5.70;;;3.90;;
16199;SDS011;8207;52.494;4.654;2023-03-03T08:16:56;6.27;;;3.87;;
16199;SDS011;8207;52.494;4.654;2023-03-03T08:19:23;6.43;;;3.73;;
16199;SDS011;8207;52.494;4.654;2023-03-03T08:21:53;6.97;;;3.90;;
16199;SDS011;8207;52.494;4.654;2023-03-03T08:24:25;8.80;;;4.83;;
16199;SDS011;8207;52.494;4.654;2023-03-03T08:26:52;8.80;;;4.17;;
16199;SDS011;8207;52.494;4.654;2023-03-03T08:29:19;9.97;;;5.27;;
16199;SDS011;8207;52.494;4.654;2023-03-03T08:31:46;8.73;;;5.43;;
16199;SDS011;8207;52.494;4.654;2023-03-03T08:34:13;6.90;;;3.60;;
16199;SDS011;8207;52.494;4.654;2023-03-03T08:36:40;14.53;;;5.30;;
16199;SDS011;8207;52.494;4.654;2023-03-03T08:39:08;6.90;;;3.40;;
16199;SDS011;8207;52.494;4.654;2023-03-03T08:41:35;6.83;;;3.50;;
16199;SDS011;8207;52.494;4.654;2023-03-03T08:44:03;7.13;;;3.57;;
16199;SDS011;8207;52.494;4.654;2023-03-03T08:46:30;4.40;;;4.00;;
16199;SDS011;8207;52.494;4.654;2023-03-03T08:48:57;8.03;;;4.17;;
16199;SDS011;8207;52.494;4.654;2023-03-03T08:51:24;5.97;;;3.53;;
16199;SDS011;8207;52.494;4.654;2023-03-03T08:53:51;5.53;;;3.30;;
16199;SDS011;8207;52.494;4.654;2023-03-03T08:56:19;6.00;;;3.70;;
16199;SDS011;8207;52.494;4.654;2023-03-03T08:58:46;6.63;;;4.07;;
16199;SDS011;8207;52.494;4.654;2023-03-03T09:01:13;5.47;;;3.30;;
16199;SDS011;8207;52.494;4.654;2023-03-03T09:03:41;6.70;;;4.00;;
16199;SDS011;8207;52.494;4.654;2023-03-03T09:06:08;6.50;;;3.10;;
16199;SDS011;8207;52.494;4.654;2023-03-03T09:08:35;4.50;;;2.70;;
16199;SDS011;8207;52.494;4.654;2023-03-03T09:11:08;10.60;;;3.03;;
16199;SDS011;8207;52.494;4.654;2023-03-03T09:13:38;4.90;;;3.03;;
16199;SDS011;8207;52.494;4.654;2023-03-03T09:16:06;5.60;;;3.20;;
16199;SDS011;8207;52.494;4.654;2023-03-03T09:18:39;6.43;;;3.27;;
16199;SDS011;8207;52.494;4.654;2023-03-03T09:21:18;4.93;;;2.30;;
16199;SDS011;8207;52.494;4.654;2023-03-03T09:23:48;4.97;;;2.23;;
16199;SDS011;8207;52.494;4.654;2023-03-03T09:26:26;9.80;;;2.60;;
16199;SDS011;8207;52.494;4.654;2023-03-03T09:28:58;3.43;;;1.77;;
16199;SDS011;8207;52.494;4.654;2023-03-03T09:31:36;7.07;;;1.83;;
16199;SDS011;8207;52.494;4.654;2023-03-03T09:34:11;2.73;;;1.83;;
16199;SDS011;8207;52.494;4.654;2023-03-03T09:36:45;4.93;;;1.93;;
16199;SDS011;8207;52.494;4.654;2023-03-03T09:39:15;6.53;;;2.53;;
16199;SDS011;8207;52.494;4.654;2023-03-03T09:45:07;4.03;;;2.43;;
16199;SDS011;8207;52.494;4.654;2023-03-03T09:48:07;14.33;;;3.10;;
16199;SDS011;8207;52.494;4.654;2023-03-03T09:51:04;7.70;;;1.63;;
16199;SDS011;8207;52.494;4.654;2023-03-03T09:53:47;3.10;;;1.97;;
16199;SDS011;8207;52.494;4.654;2023-03-03T09:56:27;2.17;;;1.10;;
16199;SDS011;8207;52.494;4.654;2023-03-03T09:59:02;1.67;;;1.10;;
16199;SDS011;8207;52.494;4.654;2023-03-03T10:01:42;6.73;;;1.60;;
16199;SDS011;8207;52.494;4.654;2023-03-03T10:07:22;2.67;;;1.53;;
16199;SDS011;8207;52.494;4.654;2023-03-03T10:12:51;2.30;;;0.97;;
16199;SDS011;8207;52.494;4.654;2023-03-03T10:15:30;1.13;;;0.80;;
16199;SDS011;8207;52.494;4.654;2023-03-03T10:18:10;4.90;;;1.00;;
16199;SDS011;8207;52.494;4.654;2023-03-03T10:20:53;1.80;;;1.10;;
16199;SDS011;8207;52.494;4.654;2023-03-03T10:23:34;3.93;;;1.03;;
16199;SDS011;8207;52.494;4.654;2023-03-03T10:26:15;2.77;;;1.20;;
16199;SDS011;8207;52.494;4.654;2023-03-03T10:29:02;1.70;;;1.00;;
16199;SDS011;8207;52.494;4.654;2023-03-03T10:32:05;2.97;;;0.80;;
16199;SDS011;8207;52.494;4.654;2023-03-03T10:35:01;5.50;;;0.90;;
16199;SDS011;8207;52.494;4.654;2023-03-03T10:37:43;0.80;;;0.80;;
16199;SDS011;8207;52.494;4.654;2023-03-03T10:40:19;2.47;;;0.90;;
16199;SDS011;8207;52.494;4.654;2023-03-03T10:45:52;3.37;;;0.70;;
16199;SDS011;8207;52.494;4.654;2023-03-03T10:48:45;2.90;;;1.13;;
16199;SDS011;8207;52.494;4.654;2023-03-03T10:51:25;2.77;;;1.27;;
16199;SDS011;8207;52.494;4.654;2023-03-03T10:54:11;0.87;;;0.70;;
16199;SDS011;8207;52.494;4.654;2023-03-03T10:56:48;2.70;;;0.83;;
16199;SDS011;8207;52.494;4.654;2023-03-03T10:59:28;4.97;;;1.63;;
16199;SDS011;8207;52.494;4.654;2023-03-03T11:02:09;1.40;;;0.57;;
16199;SDS011;8207;52.494;4.654;2023-03-03T11:07:56;2.73;;;0.67;;
16199;SDS011;8207;52.494;4.654;2023-03-03T11:10:31;2.30;;;0.80;;
16199;SDS011;8207;52.494;4.654;2023-03-03T11:13:12;2.63;;;1.03;;
16199;SDS011;8207;52.494;4.654;2023-03-03T11:15:50;1.20;;;0.70;;
16199;SDS011;8207;52.494;4.654;2023-03-03T11:18:42;1.67;;;0.90;;
16199;SDS011;8207;52.494;4.654;2023-03-03T11:21:19;3.13;;;1.40;;
16199;SDS011;8207;52.494;4.654;2023-03-03T11:23:59;0.80;;;0.63;;
16199;SDS011;8207;52.494;4.654;2023-03-03T11:26:49;1.50;;;1.40;;
16199;SDS011;8207;52.494;4.654;2023-03-03T11:29:31;3.73;;;0.90;;
16199;SDS011;8207;52.494;4.654;2023-03-03T11:32:10;1.97;;;0.80;;
16199;SDS011;8207;52.494;4.654;2023-03-03T11:34:52;2.73;;;1.23;;
16199;SDS011;8207;52.494;4.654;2023-03-03T11:37:26;5.90;;;2.57;;
16199;SDS011;8207;52.494;4.654;2023-03-03T11:40:08;1.50;;;0.93;;
16199;SDS011;8207;52.494;4.654;2023-03-03T11:42:43;4.53;;;0.90;;
16199;SDS011;8207;52.494;4.654;2023-03-03T11:45:19;1.63;;;0.60;;
16199;SDS011;8207;52.494;4.654;2023-03-03T11:47:52;3.07;;;1.10;;
16199;SDS011;8207;52.494;4.654;2023-03-03T11:50:23;0.50;;;0.50;;
16199;SDS011;8207;52.494;4.654;2023-03-03T11:52:58;1.93;;;1.00;;
16199;SDS011;8207;52.494;4.654;2023-03-03T11:55:45;2.40;;;0.90;;
16199;SDS011;8207;52.494;4.654;2023-03-03T11:58:19;1.67;;;0.80;;
16199;SDS011;8207;52.494;4.654;2023-03-03T12:00:51;1.70;;;0.70;;
16199;SDS011;8207;52.494;4.654;2023-03-03T12:03:24;2.03;;;1.23;;
16199;SDS011;8207;52.494;4.654;2023-03-03T12:05:59;0.60;;;0.50;;
16199;SDS011;8207;52.494;4.654;2023-03-03T12:08:41;2.80;;;1.03;;
16199;SDS011;8207;52.494;4.654;2023-03-03T12:11:27;2.00;;;0.60;;
16199;SDS011;8207;52.494;4.654;2023-03-03T12:14:01;2.07;;;0.90;;
16199;SDS011;8207;52.494;4.654;2023-03-03T12:16:37;2.90;;;1.13;;
16199;SDS011;8207;52.494;4.654;2023-03-03T12:22:19;3.10;;;1.40;;
16199;SDS011;8207;52.494;4.654;2023-03-03T12:25:03;3.20;;;1.33;;
16199;SDS011;8207;52.494;4.654;2023-03-03T12:27:46;6.47;;;1.43;;
16199;SDS011;8207;52.494;4.654;2023-03-03T12:30:31;4.57;;;2.50;;
16199;SDS011;8207;52.494;4.654;2023-03-03T12:33:21;2.50;;;1.13;;
16199;SDS011;8207;52.494;4.654;2023-03-03T12:35:58;4.13;;;1.40;;
16199;SDS011;8207;52.494;4.654;2023-03-03T12:38:37;6.50;;;1.10;;
16199;SDS011;8207;52.494;4.654;2023-03-03T12:41:14;4.10;;;0.90;;
16199;SDS011;8207;52.494;4.654;2023-03-03T12:43:52;2.60;;;0.80;;
16199;SDS011;8207;52.494;4.654;2023-03-03T12:46:24;4.00;;;0.87;;
16199;SDS011;8207;52.494;4.654;2023-03-03T12:48:59;2.60;;;0.80;;
16199;SDS011;8207;52.494;4.654;2023-03-03T12:51:30;1.40;;;0.90;;
16199;SDS011;8207;52.494;4.654;2023-03-03T12:54:13;1.57;;;0.83;;
16199;SDS011;8207;52.494;4.654;2023-03-03T12:56:50;2.90;;;0.80;;
16199;SDS011;8207;52.494;4.654;2023-03-03T12:59:23;2.20;;;0.80;;
16199;SDS011;8207;52.494;4.654;2023-03-03T13:01:59;1.00;;;0.70;;
16199;SDS011;8207;52.494;4.654;2023-03-03T13:04:41;1.40;;;1.00;;
16199;SDS011;8207;52.494;4.654;2023-03-03T13:07:13;4.27;;;1.37;;
16199;SDS011;8207;52.494;4.654;2023-03-03T13:09:50;7.93;;;1.40;;
16199;SDS011;8207;52.494;4.654;2023-03-03T13:12:29;3.43;;;1.27;;
16199;SDS011;8207;52.494;4.654;2023-03-03T13:15:03;2.97;;;1.23;;
16199;SDS011;8207;52.494;4.654;2023-03-03T13:17:37;7.47;;;1.30;;
16199;SDS011;8207;52.494;4.654;2023-03-03T13:20:16;4.07;;;1.40;;
16199;SDS011;8207;52.494;4.654;2023-03-03T13:22:49;1.47;;;0.83;;
16199;SDS011;8207;52.494;4.654;2023-03-03T13:25:26;2.20;;;1.20;;
16199;SDS011;8207;52.494;4.654;2023-03-03T13:28:01;0.77;;;0.50;;
16199;SDS011;8207;52.494;4.654;2023-03-03T13:30:34;4.20;;;1.30;;
16199;SDS011;8207;52.494;4.654;2023-03-03T13:33:06;2.87;;;0.70;;
16199;SDS011;8207;52.494;4.654;2023-03-03T13:35:39;1.17;;;0.63;;
16199;SDS011;8207;52.494;4.654;2023-03-03T13:38:09;1.83;;;0.70;;
16199;SDS011;8207;52.494;4.654;2023-03-03T13:40:40;2.50;;;0.73;;
16199;SDS011;8207;52.494;4.654;2023-03-03T13:43:12;4.30;;;1.90;;
16199;SDS011;8207;52.494;4.654;2023-03-03T13:45:47;3.47;;;0.90;;
16199;SDS011;8207;52.494;4.654;2023-03-03T13:48:23;2.67;;;1.00;;
16199;SDS011;8207;52.494;4.654;2023-03-03T13:51:01;1.80;;;0.80;;
16199;SDS011;8207;52.494;4.654;2023-03-03T13:53:37;1.60;;;0.90;;
16199;SDS011;8207;52.494;4.654;2023-03-03T13:56:21;5.27;;;0.90;;
16199;SDS011;8207;52.494;4.654;2023-03-03T13:59:02;3.73;;;1.20;;
16199;SDS011;8207;52.494;4.654;2023-03-03T14:01:40;3.47;;;1.57;;
16199;SDS011;8207;52.494;4.654;2023-03-03T14:04:19;5.00;;;0.93;;
16199;SDS011;8207;52.494;4.654;2023-03-03T14:06:58;4.77;;;2.10;;
16199;SDS011;8207;52.494;4.654;2023-03-03T14:09:38;6.97;;;2.23;;
16199;SDS011;8207;52.494;4.654;2023-03-03T14:12:16;5.37;;;1.40;;
16199;SDS011;8207;52.494;4.654;2023-03-03T14:14:50;4.73;;;0.90;;
16199;SDS011;8207;52.494;4.654;2023-03-03T14:17:28;5.07;;;1.00;;
16199;SDS011;8207;52.494;4.654;2023-03-03T14:20:02;4.10;;;1.63;;
16199;SDS011;8207;52.494;4.654;2023-03-03T14:22:41;2.90;;;0.80;;
16199;SDS011;8207;52.494;4.654;2023-03-03T14:25:12;6.37;;;1.50;;
16199;SDS011;8207;52.494;4.654;2023-03-03T14:27:50;3.33;;;1.00;;
16199;SDS011;8207;52.494;4.654;2023-03-03T14:30:29;5.27;;;1.47;;
16199;SDS011;8207;52.494;4.654;2023-03-03T14:36:04;5.17;;;1.13;;
16199;SDS011;8207;52.494;4.654;2023-03-03T14:38:36;8.77;;;2.40;;
16199;SDS011;8207;52.494;4.654;2023-03-03T14:41:14;5.47;;;1.80;;
16199;SDS011;8207;52.494;4.654;2023-03-03T14:43:44;6.83;;;1.80;;
16199;SDS011;8207;52.494;4.654;2023-03-03T14:46:30;8.80;;;2.60;;
16199;SDS011;8207;52.494;4.654;2023-03-03T14:49:01;11.03;;;4.23;;
16199;SDS011;8207;52.494;4.654;2023-03-03T14:51:32;13.93;;;7.07;;
16199;SDS011;8207;52.494;4.654;2023-03-03T14:54:07;17.00;;;7.23;;
16199;SDS011;8207;52.494;4.654;2023-03-03T14:56:55;9.77;;;5.40;;
16199;SDS011;8207;52.494;4.654;2023-03-03T14:59:24;8.73;;;5.77;;
16199;SDS011;8207;52.494;4.654;2023-03-03T15:01:56;6.73;;;2.13;;
16199;SDS011;8207;52.494;4.654;2023-03-03T15:04:30;18.03;;;8.83;;
16199;SDS011;8207;52.494;4.654;2023-03-03T15:06:57;24.93;;;11.53;;
16199;SDS011;8207;52.494;4.654;2023-03-03T15:09:28;15.50;;;6.43;;
16199;SDS011;8207;52.494;4.654;2023-03-03T15:12:01;13.67;;;3.97;;
16199;SDS011;8207;52.494;4.654;2023-03-03T15:14:42;8.17;;;2.50;;
16199;SDS011;8207;52.494;4.654;2023-03-03T15:17:15;5.53;;;2.80;;
16199;SDS011;8207;52.494;4.654;2023-03-03T15:20:00;8.33;;;1.80;;
16199;SDS011;8207;52.494;4.654;2023-03-03T15:22:36;12.60;;;5.10;;
16199;SDS011;8207;52.494;4.654;2023-03-03T15:25:16;6.73;;;3.27;;
16199;SDS011;8207;52.494;4.654;2023-03-03T15:27:50;9.10;;;3.90;;
16199;SDS011;8207;52.494;4.654;2023-03-03T15:30:31;6.97;;;3.13;;
16199;SDS011;8207;52.494;4.654;2023-03-03T15:33:07;5.93;;;1.83;;
16199;SDS011;8207;52.494;4.654;2023-03-03T15:35:46;7.77;;;2.37;;
16199;SDS011;8207;52.494;4.654;2023-03-03T15:38:24;14.60;;;3.30;;
16199;SDS011;8207;52.494;4.654;2023-03-03T15:41:02;12.93;;;1.97;;
16199;SDS011;8207;52.494;4.654;2023-03-03T15:43:39;10.27;;;2.10;;
16199;SDS011;8207;52.494;4.654;2023-03-03T15:46:14;10.90;;;2.33;;
16199;SDS011;8207;52.494;4.654;2023-03-03T15:48:55;12.73;;;2.80;;
16199;SDS011;8207;52.494;4.654;2023-03-03T15:51:37;10.03;;;2.10;;